createdAt,value
2022-08-17T00:00:11.042Z,68.14
2022-08-17T00:03:15.335Z,68.29
2022-08-17T00:05:47.216Z,68.35
2022-08-17T00:08:16.157Z,68.36
2022-08-17T00:10:44.766Z,68.44
2022-08-17T00:13:24.956Z,68.62
2022-08-17T00:15:52.979Z,68.60
2022-08-17T00:19:01.011Z,68.68
2022-08-17T00:21:10.701Z,68.65
2022-08-17T00:23:39.603Z,68.48
2022-08-17T00:26:16.368Z,68.55
2022-08-17T00:29:04.021Z,68.66
2022-08-17T00:31:32.067Z,68.93
2022-08-17T00:33:59.676Z,69.09
2022-08-17T00:36:27.444Z,69.19
2022-08-17T00:38:54.684Z,69.42
2022-08-17T00:41:24.129Z,69.57
2022-08-17T00:43:56.438Z,69.72
2022-08-17T00:46:28.505Z,69.40
2022-08-17T00:48:56.013Z,69.44
2022-08-17T00:51:32.628Z,69.35
2022-08-17T00:54:14.176Z,69.19
2022-08-17T00:56:47.504Z,69.17
2022-08-17T00:59:18.096Z,69.36
2022-08-17T01:01:45.393Z,69.45
2022-08-17T01:04:12.582Z,69.29
2022-08-17T01:06:40.617Z,69.04
2022-08-17T01:09:08.980Z,69.08
2022-08-17T01:11:37.427Z,69.30
2022-08-17T01:14:05.082Z,69.30
2022-08-17T01:16:32.608Z,69.36
2022-08-17T01:19:01.541Z,69.47
2022-08-17T01:21:43.997Z,69.52
2022-08-17T01:24:11.184Z,69.34
2022-08-17T01:26:41.484Z,69.33
2022-08-17T01:29:08.937Z,69.07
2022-08-17T01:31:43.957Z,68.95
2022-08-17T01:34:12.477Z,69.01
2022-08-17T01:36:41.066Z,68.95
2022-08-17T01:39:12.388Z,68.86
2022-08-17T01:41:40.696Z,68.75
2022-08-17T01:44:08.296Z,68.55
2022-08-17T01:46:37.193Z,68.50
2022-08-17T01:49:08.773Z,68.48
2022-08-17T01:51:36.088Z,68.36
2022-08-17T01:54:05.864Z,68.30
2022-08-17T01:56:33.663Z,68.09
2022-08-17T01:59:01.741Z,67.99
2022-08-17T02:01:30.645Z,68.06
2022-08-17T02:04:01.407Z,68.03
2022-08-17T02:06:31.652Z,67.95
2022-08-17T02:09:16.970Z,67.86
2022-08-17T02:11:44.623Z,67.80
2022-08-17T02:14:15.512Z,67.70
2022-08-17T02:16:43.684Z,67.70
2022-08-17T02:19:13.288Z,67.48
2022-08-17T02:21:40.697Z,67.47
2022-08-17T02:24:08.991Z,67.36
2022-08-17T02:26:37.338Z,67.22
2022-08-17T02:29:04.606Z,66.93
2022-08-17T02:31:31.858Z,66.96
2022-08-17T02:34:03.632Z,66.84
2022-08-17T02:36:36.331Z,66.52
2022-08-17T02:39:09.642Z,66.33
2022-08-17T02:41:37.036Z,66.20
2022-08-17T02:44:06.022Z,66.29
2022-08-17T02:46:33.306Z,66.35
2022-08-17T02:49:04.281Z,66.42
2022-08-17T02:51:32.025Z,66.56
2022-08-17T02:54:02.199Z,66.63
2022-08-17T02:56:46.432Z,66.73
2022-08-17T02:59:14.899Z,66.92
2022-08-17T03:01:42.085Z,67.01
2022-08-17T03:04:09.408Z,67.44
2022-08-17T03:06:38.115Z,67.48
2022-08-17T03:09:05.405Z,67.52
2022-08-17T03:11:33.581Z,67.52
2022-08-17T03:14:01.057Z,67.41
2022-08-17T03:16:28.203Z,67.47
2022-08-17T03:18:55.624Z,67.41
2022-08-17T03:21:22.915Z,67.39
2022-08-17T03:23:54.421Z,67.15
2022-08-17T03:26:22.053Z,67.10
2022-08-17T03:28:49.421Z,67.09
2022-08-17T03:31:18.654Z,67.00
2022-08-17T03:33:45.830Z,66.93
2022-08-17T03:36:13.215Z,66.72
2022-08-17T03:38:40.505Z,66.68
2022-08-17T03:41:08.834Z,66.55
2022-08-17T03:43:36.115Z,66.53
2022-08-17T03:46:28.386Z,66.43
2022-08-17T03:49:22.897Z,66.15
2022-08-17T03:52:09.063Z,65.93
2022-08-17T03:54:54.896Z,65.75
2022-08-17T03:57:22.087Z,65.63
2022-08-17T03:59:49.753Z,65.64
2022-08-17T04:02:26.966Z,65.28
2022-08-17T04:04:54.404Z,65.39
2022-08-17T04:07:23.004Z,65.09
2022-08-17T04:09:51.038Z,64.84
2022-08-17T04:12:19.590Z,64.65
2022-08-17T04:14:52.677Z,64.53
2022-08-17T04:17:24.491Z,64.27
2022-08-17T04:19:52.232Z,64.30
2022-08-17T04:22:31.454Z,64.18
2022-08-17T04:25:03.858Z,64.11
2022-08-17T04:27:32.102Z,64.12
2022-08-17T04:29:59.397Z,64.08
2022-08-17T04:33:03.988Z,63.83
2022-08-17T04:35:18.720Z,63.68
2022-08-17T04:37:46.085Z,63.58
2022-08-17T04:40:31.994Z,63.45
2022-08-17T04:43:02.965Z,63.40
2022-08-17T04:45:32.338Z,63.30
2022-08-17T04:48:00.977Z,63.32
2022-08-17T04:50:28.355Z,63.10
2022-08-17T04:52:56.644Z,63.00
2022-08-17T04:55:24.191Z,62.79
2022-08-17T04:57:51.358Z,62.69
2022-08-17T05:00:19.096Z,62.62
2022-08-17T05:02:49.612Z,62.47
2022-08-17T05:05:25.198Z,62.37
2022-08-17T05:07:54.650Z,62.28
2022-08-17T05:10:26.842Z,62.25
2022-08-17T05:13:04.096Z,62.27
2022-08-17T05:15:35.945Z,62.41
2022-08-17T05:18:04.299Z,62.39
2022-08-17T05:20:31.910Z,62.38
2022-08-17T05:23:01.225Z,62.66
2022-08-17T05:25:32.757Z,62.91
2022-08-17T05:28:04.271Z,63.21
2022-08-17T05:30:33.921Z,62.91
2022-08-17T05:33:06.562Z,62.42
2022-08-17T05:35:35.575Z,62.18
2022-08-17T05:38:02.918Z,62.11
2022-08-17T05:40:32.811Z,62.24
2022-08-17T05:43:08.492Z,62.09
2022-08-17T05:46:02.165Z,62.65
2022-08-17T05:48:39.690Z,62.51
2022-08-17T05:51:19.934Z,62.83
2022-08-17T05:54:13.916Z,63.22
2022-08-17T05:56:56.502Z,63.19
2022-08-17T05:59:57.769Z,63.05
2022-08-17T06:02:30.089Z,63.32
2022-08-17T06:05:06.403Z,63.47
2022-08-17T06:07:48.092Z,63.48
2022-08-17T06:10:30.545Z,63.63
2022-08-17T06:13:26.338Z,63.37
2022-08-17T06:15:59.424Z,62.64
2022-08-17T06:18:30.175Z,62.12
2022-08-17T06:21:00.644Z,62.07
2022-08-17T06:23:34.876Z,62.16
2022-08-17T06:26:09.386Z,62.44
2022-08-17T06:28:44.702Z,61.99
2022-08-17T06:31:27.772Z,61.37
2022-08-17T06:34:01.699Z,61.33
2022-08-17T06:36:38.029Z,61.26
2022-08-17T06:39:27.378Z,60.86
2022-08-17T06:42:06.970Z,61.14
2022-08-17T06:44:43.492Z,61.38
2022-08-17T06:47:27.989Z,61.31
2022-08-17T06:50:05.809Z,61.14
2022-08-17T06:52:45.739Z,61.19
2022-08-17T06:55:19.671Z,60.93
2022-08-17T06:57:51.312Z,61.30
2022-08-17T07:03:21.928Z,62.39
2022-08-17T07:05:58.241Z,62.32
2022-08-17T07:09:02.624Z,62.10
2022-08-17T07:11:50.755Z,62.14
2022-08-17T07:14:36.885Z,62.53
2022-08-17T07:17:13.544Z,62.82
2022-08-17T07:19:45.635Z,63.42
2022-08-17T07:22:28.223Z,63.44
2022-08-17T07:24:59.974Z,63.15
2022-08-17T07:27:51.368Z,62.87
2022-08-17T07:30:24.849Z,62.33
2022-08-17T07:32:57.596Z,62.04
2022-08-17T07:35:31.404Z,61.83
2022-08-17T07:38:24.732Z,61.89
2022-08-17T07:41:03.089Z,61.98
2022-08-17T07:43:40.080Z,61.83
2022-08-17T07:46:42.477Z,61.59
2022-08-17T07:49:09.711Z,61.57
2022-08-17T07:51:41.048Z,61.41
2022-08-17T07:54:23.119Z,61.18
2022-08-17T07:56:54.396Z,61.35
2022-08-17T07:59:33.841Z,61.73
2022-08-17T08:02:06.366Z,60.85
2022-08-17T08:04:59.762Z,61.17
2022-08-17T08:07:37.615Z,61.14
2022-08-17T08:10:42.562Z,60.82
2022-08-17T08:13:14.674Z,60.76
2022-08-17T08:15:53.719Z,61.38
2022-08-17T08:18:41.197Z,61.19
2022-08-17T08:21:42.095Z,61.52
2022-08-17T08:24:43.766Z,62.05
2022-08-17T08:27:50.637Z,61.86
2022-08-17T08:30:21.588Z,61.86
2022-08-17T08:32:57.270Z,62.20
2022-08-17T08:35:38.491Z,61.90
2022-08-17T08:38:08.837Z,61.40
2022-08-17T08:40:43.807Z,61.30
2022-08-17T08:43:19.832Z,61.74
2022-08-17T08:45:47.381Z,61.45
2022-08-17T08:48:53.344Z,61.32
2022-08-17T08:51:22.216Z,61.10
2022-08-17T08:54:04.153Z,61.39
2022-08-17T08:56:35.647Z,61.68
2022-08-17T08:59:28.310Z,62.21
2022-08-17T09:02:26.749Z,62.60
2022-08-17T09:05:16.355Z,62.66
2022-08-17T09:08:12.068Z,62.59
2022-08-17T09:10:51.676Z,62.07
2022-08-17T09:13:23.924Z,61.59
2022-08-17T09:15:57.598Z,61.48
2022-08-17T09:19:00.067Z,61.91
2022-08-17T09:21:52.925Z,61.89
2022-08-17T09:24:32.248Z,61.50
2022-08-17T09:27:06.666Z,60.54
2022-08-17T09:29:37.041Z,60.40
2022-08-17T09:32:10.199Z,60.64
2022-08-17T09:34:43.553Z,60.62
2022-08-17T09:37:20.526Z,61.57
2022-08-17T09:40:14.083Z,62.01
2022-08-17T09:42:44.889Z,62.67
2022-08-17T09:45:51.685Z,62.86
2022-08-17T09:48:22.209Z,62.33
2022-08-17T09:51:08.143Z,62.13
2022-08-17T09:53:36.769Z,62.79
2022-08-17T09:56:13.176Z,62.68
2022-08-17T09:58:43.198Z,62.72
2022-08-17T10:01:20.715Z,62.27
2022-08-17T10:04:20.591Z,62.44
2022-08-17T10:07:03.467Z,62.19
2022-08-17T10:10:19.897Z,62.16
2022-08-17T10:13:25.022Z,61.91
2022-08-17T10:16:04.768Z,62.64
2022-08-17T10:18:39.091Z,62.55
2022-08-17T10:21:30.284Z,62.06
2022-08-17T10:24:27.515Z,62.29
2022-08-17T10:26:57.066Z,61.91
2022-08-17T10:29:29.147Z,62.28
2022-08-17T10:32:04.391Z,62.47
2022-08-17T10:34:51.397Z,62.58
2022-08-17T10:37:19.887Z,62.43
2022-08-17T10:39:52.684Z,61.80
2022-08-17T10:42:42.956Z,61.60
2022-08-17T10:45:29.863Z,61.28
2022-08-17T10:48:05.770Z,61.11
2022-08-17T10:51:00.518Z,60.99
2022-08-17T10:53:33.912Z,60.88
2022-08-17T10:56:13.509Z,60.92
2022-08-17T10:58:57.863Z,61.01
2022-08-17T11:01:34.267Z,60.97
2022-08-17T11:04:21.612Z,60.85
2022-08-17T11:07:07.906Z,61.25
2022-08-17T11:09:41.899Z,61.42
2022-08-17T11:12:18.814Z,61.25
2022-08-17T11:15:10.240Z,61.27
2022-08-17T11:18:14.908Z,61.48
2022-08-17T11:21:00.983Z,61.32
2022-08-17T11:23:34.298Z,61.49
2022-08-17T11:26:08.567Z,61.84
2022-08-17T11:28:46.286Z,61.82
2022-08-17T11:31:41.481Z,61.31
2022-08-17T11:34:14.815Z,60.70
2022-08-17T11:37:03.890Z,60.55
2022-08-17T11:39:49.403Z,60.80
2022-08-17T11:42:36.539Z,61.20
2022-08-17T11:45:10.328Z,61.48
2022-08-17T11:48:26.052Z,61.51
2022-08-17T11:51:34.553Z,61.58
2022-08-17T11:54:35.963Z,61.67
2022-08-17T11:57:26.372Z,62.14
2022-08-17T12:00:03.449Z,62.64
2022-08-17T12:02:39.022Z,63.07
2022-08-17T12:05:12.608Z,63.20
2022-08-17T12:07:53.000Z,63.22
2022-08-17T12:10:22.484Z,61.52
2022-08-17T12:12:50.448Z,58.48
2022-08-17T12:15:21.311Z,58.05
2022-08-17T12:17:53.693Z,57.28
2022-08-17T12:20:32.908Z,55.88
2022-08-17T12:23:38.504Z,55.53
2022-08-17T12:26:11.222Z,55.13
2022-08-17T12:28:39.060Z,55.32
2022-08-17T12:31:08.136Z,57.59
2022-08-17T12:33:36.767Z,60.52
2022-08-17T12:36:05.847Z,62.71
2022-08-17T12:38:34.965Z,64.52
2022-08-17T12:41:26.237Z,63.96
2022-08-17T12:44:02.544Z,64.14
2022-08-17T12:46:43.243Z,65.19
2022-08-17T12:49:23.612Z,66.21
2022-08-17T12:51:51.677Z,66.33
2022-08-17T12:54:25.998Z,66.86
2022-08-17T12:56:53.400Z,67.83
2022-08-17T12:59:30.312Z,67.97
2022-08-17T13:01:58.054Z,67.67
2022-08-17T13:04:26.547Z,68.41
2022-08-17T13:07:00.296Z,69.07
2022-08-17T13:09:35.419Z,69.71
2022-08-17T13:12:09.309Z,70.24
2022-08-17T13:14:37.228Z,70.50
2022-08-17T13:17:11.087Z,70.51
2022-08-17T13:19:48.139Z,70.64
2022-08-17T13:22:15.656Z,70.80
2022-08-17T13:25:09.360Z,71.28
2022-08-17T13:27:36.651Z,71.28
2022-08-17T13:30:12.366Z,70.08
2022-08-17T13:32:44.040Z,69.06
2022-08-17T13:35:46.491Z,69.83
2022-08-17T13:38:49.738Z,69.79
2022-08-17T13:41:34.827Z,70.53
2022-08-17T13:44:02.119Z,71.01
2022-08-17T13:46:33.252Z,71.28
2022-08-17T13:49:11.704Z,71.55
2022-08-17T13:51:43.644Z,71.50
2022-08-17T13:54:34.481Z,71.27
2022-08-17T13:57:08.203Z,71.55
2022-08-17T13:59:55.268Z,71.61
2022-08-17T14:02:23.494Z,71.57
2022-08-17T14:04:57.074Z,71.54
2022-08-17T14:07:33.952Z,71.67
2022-08-17T14:10:10.170Z,71.61
2022-08-17T14:12:40.939Z,71.26
2022-08-17T14:15:09.070Z,71.33
2022-08-17T14:17:38.892Z,71.48
2022-08-17T14:20:09.706Z,71.74
2022-08-17T14:22:38.608Z,71.90
2022-08-17T14:25:08.692Z,71.82
2022-08-17T14:27:51.795Z,71.67
2022-08-17T14:30:22.765Z,71.80
2022-08-17T14:32:52.229Z,72.08
2022-08-17T14:35:22.546Z,72.14
2022-08-17T14:37:50.673Z,72.57
2022-08-17T14:40:25.063Z,72.37
2022-08-17T14:42:53.340Z,72.33
2022-08-17T14:45:20.603Z,72.07
2022-08-17T14:48:00.426Z,71.48
2022-08-17T14:50:27.893Z,71.11
2022-08-17T14:52:58.067Z,71.31
2022-08-17T14:55:26.457Z,70.85
2022-08-17T14:57:53.764Z,70.32
2022-08-17T15:00:21.118Z,70.44
2022-08-17T15:02:56.604Z,70.31
2022-08-17T15:05:26.349Z,70.54
2022-08-17T15:07:56.024Z,70.22
2022-08-17T15:10:25.903Z,69.88
2022-08-17T15:12:53.552Z,68.26
2022-08-17T15:15:20.978Z,66.91
2022-08-17T15:17:48.511Z,66.41
2022-08-17T15:20:18.409Z,67.15
2022-08-17T15:22:46.127Z,67.48
2022-08-17T15:25:13.418Z,67.18
2022-08-17T15:27:41.537Z,67.26
2022-08-17T15:30:09.682Z,68.05
2022-08-17T15:32:38.934Z,68.00
2022-08-17T15:35:07.055Z,67.75
2022-08-17T15:37:34.263Z,67.68
2022-08-17T15:40:02.737Z,68.33
2022-08-17T15:42:30.566Z,68.96
2022-08-17T15:44:57.817Z,69.51
2022-08-17T15:47:25.133Z,69.83
2022-08-17T15:49:57.906Z,69.72
2022-08-17T15:52:28.543Z,70.33
2022-08-17T15:54:58.546Z,70.59
2022-08-17T15:57:26.033Z,70.66
2022-08-17T15:59:55.486Z,70.91
2022-08-17T16:03:45.218Z,71.31
2022-08-17T16:05:22.228Z,71.86
2022-08-17T16:07:53.011Z,71.63
2022-08-17T16:10:21.393Z,71.61
2022-08-17T16:12:49.960Z,71.53
2022-08-17T16:15:18.126Z,71.44
2022-08-17T16:17:45.893Z,71.56
2022-08-17T16:20:20.554Z,71.19
2022-08-17T16:22:49.272Z,71.01
2022-08-17T16:25:20.790Z,70.80
2022-08-17T16:27:53.891Z,71.08
2022-08-17T16:30:24.099Z,71.67
2022-08-17T16:32:54.194Z,71.97
2022-08-17T16:35:23.168Z,72.19
2022-08-17T16:37:54.686Z,72.45
2022-08-17T16:40:24.200Z,72.62
2022-08-17T16:42:51.908Z,72.89
2022-08-17T16:45:23.042Z,72.93
2022-08-17T16:47:50.651Z,73.10
2022-08-17T16:50:21.367Z,73.04
2022-08-17T16:52:49.093Z,73.24
2022-08-17T16:55:20.132Z,72.89
2022-08-17T16:57:50.266Z,72.26
2022-08-17T17:00:19.573Z,72.11
2022-08-17T17:02:47.956Z,72.04
2022-08-17T17:05:46.439Z,72.14
2022-08-17T17:08:30.603Z,71.93
2022-08-17T17:10:59.480Z,71.75
2022-08-17T17:13:59.814Z,71.61
2022-08-17T17:16:27.154Z,71.38
2022-08-17T17:19:10.406Z,71.34
2022-08-17T17:21:46.827Z,72.00
2022-08-17T17:24:17.320Z,71.94
2022-08-17T17:27:07.729Z,72.00
2022-08-17T17:30:04.257Z,72.18
2022-08-17T17:32:41.415Z,72.41
2022-08-17T17:35:11.967Z,72.59
2022-08-17T17:37:39.291Z,72.73
2022-08-17T17:40:13.030Z,72.60
2022-08-17T17:42:42.058Z,72.73
2022-08-17T17:45:16.473Z,73.02
2022-08-17T17:47:44.413Z,73.16
2022-08-17T17:50:12.179Z,73.02
2022-08-17T17:52:56.229Z,72.81
2022-08-17T17:55:54.628Z,72.66
2022-08-17T17:58:28.335Z,72.62
2022-08-17T18:01:13.873Z,72.91
2022-08-17T18:03:57.212Z,72.95
2022-08-17T18:06:51.898Z,72.95
2022-08-17T18:09:34.989Z,72.69
2022-08-17T18:12:09.232Z,72.77
2022-08-17T18:14:53.404Z,72.52
2022-08-17T18:17:21.350Z,72.54
2022-08-17T18:19:48.734Z,72.37
2022-08-17T18:22:21.147Z,72.35
2022-08-17T18:24:56.232Z,72.57
2022-08-17T18:27:25.163Z,72.61
2022-08-17T18:29:55.176Z,72.87
2022-08-17T18:32:30.134Z,73.13
2022-08-17T18:34:57.521Z,73.29
2022-08-17T18:37:45.331Z,73.18
2022-08-17T18:40:19.906Z,73.26
2022-08-17T18:43:09.317Z,73.67
2022-08-17T18:45:43.675Z,73.59
2022-08-17T18:48:29.179Z,73.82
2022-08-17T18:50:59.470Z,73.86
2022-08-17T18:53:36.506Z,73.95
2022-08-17T18:56:21.917Z,73.69
2022-08-17T18:59:13.011Z,73.71
2022-08-17T19:01:54.653Z,73.90
2022-08-17T19:04:38.642Z,73.89
2022-08-17T19:07:07.890Z,74.16
2022-08-17T19:09:47.344Z,73.96
2022-08-17T19:12:30.137Z,73.79
2022-08-17T19:14:57.977Z,73.73
2022-08-17T19:17:41.253Z,73.85
2022-08-17T19:21:03.783Z,74.02
2022-08-17T19:23:41.763Z,74.12
2022-08-17T19:26:54.051Z,74.03
2022-08-17T19:29:39.670Z,73.41
2022-08-17T19:32:07.741Z,73.08
2022-08-17T19:34:36.560Z,73.08
2022-08-17T19:37:36.497Z,73.14
2022-08-17T19:40:04.348Z,72.96
2022-08-17T19:43:06.887Z,72.71
2022-08-17T19:45:52.812Z,72.29
2022-08-17T19:48:26.368Z,72.26
2022-08-17T19:51:04.982Z,72.86
2022-08-17T19:54:16.352Z,73.16
2022-08-17T19:56:47.715Z,73.13
2022-08-17T19:59:52.746Z,72.57
2022-08-17T20:02:32.105Z,73.00
2022-08-17T20:05:02.249Z,73.26
2022-08-17T20:07:44.404Z,73.58
2022-08-17T20:10:18.921Z,73.56
2022-08-17T20:12:46.303Z,73.12
2022-08-17T20:15:28.149Z,72.61
2022-08-17T20:17:57.779Z,72.03
2022-08-17T20:20:40.398Z,72.04
2022-08-17T20:23:48.349Z,72.10
2022-08-17T20:26:23.082Z,72.37
2022-08-17T20:29:15.310Z,71.97
2022-08-17T20:31:49.778Z,72.28
2022-08-17T20:34:31.037Z,72.66
2022-08-17T20:37:08.775Z,72.76
2022-08-17T20:39:44.064Z,72.82
2022-08-17T20:42:20.793Z,73.00
2022-08-17T20:44:50.194Z,73.22
2022-08-17T20:47:18.669Z,73.40
2022-08-17T20:49:54.750Z,73.55
2022-08-17T20:52:55.139Z,73.59
2022-08-17T20:55:35.790Z,73.56
2022-08-17T20:58:30.567Z,73.85
2022-08-17T21:01:01.822Z,74.05
2022-08-17T21:03:32.250Z,74.21
2022-08-17T21:06:18.118Z,74.33
2022-08-17T21:08:57.929Z,74.52
2022-08-17T21:12:03.422Z,74.74
2022-08-17T21:14:25.102Z,75.02
2022-08-17T21:17:29.832Z,75.02
2022-08-17T21:20:20.365Z,74.95
2022-08-17T21:23:02.932Z,75.41
2022-08-17T21:25:54.770Z,75.46
2022-08-17T21:29:00.348Z,75.80
2022-08-17T21:31:35.884Z,75.90
2022-08-17T21:34:16.277Z,75.98
2022-08-17T21:36:44.223Z,76.16
2022-08-17T21:39:23.280Z,76.15
2022-08-17T21:41:56.833Z,76.05
2022-08-17T21:44:37.459Z,75.93
2022-08-17T21:47:16.159Z,76.12
2022-08-17T21:49:43.960Z,75.96
2022-08-17T21:52:14.851Z,76.30
2022-08-17T21:54:44.735Z,76.25
2022-08-17T21:57:17.517Z,76.04
2022-08-17T21:59:44.985Z,75.70
2022-08-17T22:02:22.921Z,75.70
2022-08-17T22:05:13.600Z,75.68
2022-08-17T22:07:42.389Z,75.41
2022-08-17T22:10:38.532Z,75.13
2022-08-17T22:13:20.799Z,74.76
2022-08-17T22:15:50.196Z,74.78
2022-08-17T22:18:21.684Z,74.63
2022-08-17T22:20:51.047Z,74.68
2022-08-17T22:23:45.957Z,74.92
2022-08-17T22:26:14.257Z,74.89
2022-08-17T22:28:47.108Z,74.95
2022-08-17T22:31:28.431Z,74.80
2022-08-17T22:34:01.730Z,74.54
2022-08-17T22:36:30.233Z,74.15
2022-08-17T22:38:59.343Z,74.17
2022-08-17T22:41:27.964Z,74.24
2022-08-17T22:43:57.673Z,74.44
2022-08-17T22:46:25.844Z,74.72
2022-08-17T22:48:56.188Z,74.86
2022-08-17T22:51:25.633Z,74.99
2022-08-17T22:54:17.837Z,75.22
2022-08-17T22:57:15.493Z,75.29
2022-08-17T22:59:48.987Z,74.86
2022-08-17T23:02:23.688Z,74.68
2022-08-17T23:04:53.710Z,74.49
2022-08-17T23:07:22.511Z,74.18
2022-08-17T23:09:52.125Z,74.13
2022-08-17T23:12:23.918Z,73.87
2022-08-17T23:14:52.783Z,73.69
2022-08-17T23:17:20.528Z,73.74
2022-08-17T23:19:47.699Z,73.83
2022-08-17T23:22:14.819Z,73.75
2022-08-17T23:24:49.111Z,73.72
2022-08-17T23:27:17.253Z,73.53
2022-08-17T23:29:44.583Z,73.52
2022-08-17T23:32:15.041Z,73.32
2022-08-17T23:34:43.323Z,73.32
2022-08-17T23:37:11.312Z,73.45
2022-08-17T23:39:39.710Z,73.71
2022-08-17T23:42:08.607Z,73.85
2022-08-17T23:47:21.700Z,74.39
2022-08-17T23:49:48.902Z,74.48
2022-08-17T23:52:22.994Z,74.79
2022-08-17T23:54:50.202Z,74.93
2022-08-17T23:57:19.207Z,74.98
2022-08-17T23:59:46.610Z,74.78
